sensor_id;sensor_type;location;lat;lon;timestamp;pressure;altitude;pressure_sealevel;temperature;humidity
30598;BME280;17365;48.878;8.334;2023-03-20T00:00:34;100358.81;;;9.64;100.00
30598;BME280;17365;48.878;8.334;2023-03-20T00:03:00;100355.41;;;9.73;100.00
30598;BME280;17365;48.878;8.334;2023-03-20T00:05:26;100365.75;;;9.71;100.00
30598;BME280;17365;48.878;8.334;2023-03-20T00:07:52;100366.59;;;9.66;100.00
30598;BME280;17365;48.878;8.334;2023-03-20T00:10:19;100365.81;;;9.74;100.00
30598;BME280;17365;48.878;8.334;2023-03-20T00:12:45;100364.97;;;9.77;100.00
30598;BME280;17365;48.878;8.334;2023-03-20T00:15:27;100366.78;;;9.87;99.47
30598;BME280;17365;48.878;8.334;2023-03-20T00:17:53;100368.31;;;9.67;100.00
30598;BME280;17365;48.878;8.334;2023-03-20T00:20:19;100359.09;;;9.98;99.00
30598;BME280;17365;48.878;8.334;2023-03-20T00:22:44;100365.09;;;9.95;98.24
30598;BME280;17365;48.878;8.334;2023-03-20T00:25:14;100366.81;;;9.93;98.16
30598;BME280;17365;48.878;8.334;2023-03-20T00:27:40;100360.84;;;9.99;97.92
30598;BME280;17365;48.878;8.334;2023-03-20T00:30:14;100367.66;;;9.86;98.15
30598;BME280;17365;48.878;8.334;2023-03-20T00:32:40;100372.84;;;9.87;98.64
30598;BME280;17365;48.878;8.334;2023-03-20T00:35:19;100369.22;;;9.72;98.26
30598;BME280;17365;48.878;8.334;2023-03-20T00:37:45;100374.47;;;9.79;97.54
30598;BME280;17365;48.878;8.334;2023-03-20T00:40:10;100372.88;;;9.93;97.21
30598;BME280;17365;48.878;8.334;2023-03-20T00:42:36;100366.91;;;9.99;97.01
30598;BME280;17365;48.878;8.334;2023-03-20T00:45:01;100375.56;;;10.04;96.85
30598;BME280;17365;48.878;8.334;2023-03-20T00:47:27;100370.25;;;9.86;97.36
30598;BME280;17365;48.878;8.334;2023-03-20T00:49:53;100381.56;;;9.99;97.37
30598;BME280;17365;48.878;8.334;2023-03-20T00:52:20;100373.88;;;10.09;97.07
30598;BME280;17365;48.878;8.334;2023-03-20T00:54:45;100383.22;;;9.89;97.31
30598;BME280;17365;48.878;8.334;2023-03-20T00:57:15;100384.97;;;9.91;97.17
30598;BME280;17365;48.878;8.334;2023-03-20T01:00:00;100377.28;;;10.05;96.87
30598;BME280;17365;48.878;8.334;2023-03-20T01:02:28;100375.56;;;10.07;96.60
30598;BME280;17365;48.878;8.334;2023-03-20T01:04:55;100374.75;;;10.11;96.19
30598;BME280;17365;48.878;8.334;2023-03-20T01:07:20;100386.88;;;10.17;96.09
30598;BME280;17365;48.878;8.334;2023-03-20T01:09:45;100386.06;;;10.19;95.78
30598;BME280;17365;48.878;8.334;2023-03-20T01:12:11;100383.47;;;10.21;96.46
30598;BME280;17365;48.878;8.334;2023-03-20T01:14:37;100381.69;;;10.11;96.69
30598;BME280;17365;48.878;8.334;2023-03-20T01:17:02;100374.75;;;10.08;96.72
30598;BME280;17365;48.878;8.334;2023-03-20T01:19:27;100379.94;;;10.11;96.85
30598;BME280;17365;48.878;8.334;2023-03-20T01:21:53;100377.28;;;10.04;97.87
30598;BME280;17365;48.878;8.334;2023-03-20T01:24:18;100379.97;;;10.14;96.95
30598;BME280;17365;48.878;8.334;2023-03-20T01:26:43;100379.84;;;10.01;97.14
30598;BME280;17365;48.878;8.334;2023-03-20T01:29:19;100383.25;;;9.93;97.88
30598;BME280;17365;48.878;8.334;2023-03-20T01:31:45;100387.63;;;9.98;97.98
30598;BME280;17365;48.878;8.334;2023-03-20T01:34:11;100386.00;;;10.12;97.57
30598;BME280;17365;48.878;8.334;2023-03-20T01:36:36;100383.53;;;10.24;96.05
30598;BME280;17365;48.878;8.334;2023-03-20T01:39:01;100393.91;;;10.26;96.59
30598;BME280;17365;48.878;8.334;2023-03-20T01:41:27;100393.06;;;10.28;96.05
30598;BME280;17365;48.878;8.334;2023-03-20T01:43:53;100402.63;;;10.38;95.19
30598;BME280;17365;48.878;8.334;2023-03-20T01:46:21;100401.75;;;10.35;95.32
30598;BME280;17365;48.878;8.334;2023-03-20T01:51:25;100407.91;;;10.47;94.64
30598;BME280;17365;48.878;8.334;2023-03-20T01:53:52;100408.69;;;10.37;94.66
30598;BME280;17365;48.878;8.334;2023-03-20T01:56:18;100406.25;;;10.59;94.68
30598;BME280;17365;48.878;8.334;2023-03-20T01:58:45;100408.84;;;10.60;94.00
30598;BME280;17365;48.878;8.334;2023-03-20T02:01:11;100409.78;;;10.70;93.88
30598;BME280;17365;48.878;8.334;2023-03-20T02:03:38;100410.63;;;10.69;93.57
30598;BME280;17365;48.878;8.334;2023-03-20T02:06:04;100408.84;;;10.59;93.44
30598;BME280;17365;48.878;8.334;2023-03-20T02:08:30;100409.69;;;10.58;93.55
30598;BME280;17365;48.878;8.334;2023-03-20T02:10:57;100413.16;;;10.55;93.65
30598;BME280;17365;48.878;8.334;2023-03-20T02:13:24;100410.56;;;10.60;94.12
30598;BME280;17365;48.878;8.334;2023-03-20T02:16:12;100420.09;;;10.59;93.67
30598;BME280;17365;48.878;8.334;2023-03-20T02:18:36;100422.63;;;10.53;93.23
30598;BME280;17365;48.878;8.334;2023-03-20T02:23:56;100423.56;;;10.64;93.18
30598;BME280;17365;48.878;8.334;2023-03-20T02:31:45;100430.53;;;10.71;93.74
30598;BME280;17365;48.878;8.334;2023-03-20T02:39:46;100428.06;;;10.88;92.94
30598;BME280;17365;48.878;8.334;2023-03-20T02:47:27;100427.00;;;10.59;94.26
30598;BME280;17365;48.878;8.334;2023-03-20T02:50:07;100430.47;;;10.61;94.96
30598;BME280;17365;48.878;8.334;2023-03-20T02:52:42;100436.53;;;10.63;94.99
30598;BME280;17365;48.878;8.334;2023-03-20T02:55:13;100429.56;;;10.54;95.21
30598;BME280;17365;48.878;8.334;2023-03-20T02:57:51;100431.41;;;10.72;94.33
30598;BME280;17365;48.878;8.334;2023-03-20T03:00:23;100427.78;;;10.47;95.46
30598;BME280;17365;48.878;8.334;2023-03-20T03:03:00;100441.72;;;10.63;94.21
30598;BME280;17365;48.878;8.334;2023-03-20T03:05:36;100437.13;;;10.25;95.63
30598;BME280;17365;48.878;8.334;2023-03-20T03:08:02;100439.88;;;10.42;95.36
30598;BME280;17365;48.878;8.334;2023-03-20T03:10:30;100433.91;;;10.57;94.41
30598;BME280;17365;48.878;8.334;2023-03-20T03:12:58;100438.22;;;10.56;94.60
30598;BME280;17365;48.878;8.334;2023-03-20T03:15:26;100434.78;;;10.60;94.20
30598;BME280;17365;48.878;8.334;2023-03-20T03:17:52;100442.63;;;10.65;94.09
30598;BME280;17365;48.878;8.334;2023-03-20T03:20:20;100435.66;;;10.64;94.23
30598;BME280;17365;48.878;8.334;2023-03-20T03:22:46;100439.09;;;10.58;93.66
30598;BME280;17365;48.878;8.334;2023-03-20T03:25:12;100442.50;;;10.53;94.40
30598;BME280;17365;48.878;8.334;2023-03-20T03:27:39;100447.88;;;10.77;93.32
30598;BME280;17365;48.878;8.334;2023-03-20T03:30:06;100448.63;;;10.62;93.76
30598;BME280;17365;48.878;8.334;2023-03-20T03:32:35;100450.25;;;10.42;94.22
30598;BME280;17365;48.878;8.334;2023-03-20T03:35:01;100454.66;;;10.54;93.77
30598;BME280;17365;48.878;8.334;2023-03-20T03:39:53;100464.63;;;10.11;95.96
30598;BME280;17365;48.878;8.334;2023-03-20T03:44:54;100462.88;;;10.08;96.45
30598;BME280;17365;48.878;8.334;2023-03-20T03:47:23;100461.97;;;10.06;97.02
30598;BME280;17365;48.878;8.334;2023-03-20T03:49:52;100450.56;;;9.87;98.12
30598;BME280;17365;48.878;8.334;2023-03-20T03:52:21;100445.63;;;10.12;97.48
30598;BME280;17365;48.878;8.334;2023-03-20T03:54:48;100448.91;;;9.96;98.73
30598;BME280;17365;48.878;8.334;2023-03-20T03:57:18;100439.34;;;9.85;99.64
30598;BME280;17365;48.878;8.334;2023-03-20T03:59:45;100433.34;;;9.96;98.91
30598;BME280;17365;48.878;8.334;2023-03-20T04:02:11;100440.25;;;9.93;98.89
30598;BME280;17365;48.878;8.334;2023-03-20T04:04:39;100440.72;;;9.53;100.00
30598;BME280;17365;48.878;8.334;2023-03-20T04:07:06;100440.91;;;9.73;100.00
30598;BME280;17365;48.878;8.334;2023-03-20T04:09:31;100443.72;;;9.96;99.27
30598;BME280;17365;48.878;8.334;2023-03-20T04:11:57;100454.03;;;9.86;99.31
30598;BME280;17365;48.878;8.334;2023-03-20T04:14:22;100451.56;;;10.00;98.89
30598;BME280;17365;48.878;8.334;2023-03-20T04:16:48;100443.63;;;9.85;99.52
30598;BME280;17365;48.878;8.334;2023-03-20T04:19:13;100456.53;;;9.80;100.00
30598;BME280;17365;48.878;8.334;2023-03-20T04:21:38;100458.28;;;9.83;99.68
30598;BME280;17365;48.878;8.334;2023-03-20T04:24:03;100460.13;;;9.95;99.50
30598;BME280;17365;48.878;8.334;2023-03-20T04:26:29;100470.59;;;10.05;99.44
30598;BME280;17365;48.878;8.334;2023-03-20T04:28:54;100475.84;;;10.10;98.92
30598;BME280;17365;48.878;8.334;2023-03-20T04:31:19;100474.94;;;10.06;98.53
30598;BME280;17365;48.878;8.334;2023-03-20T04:33:45;100476.81;;;10.19;98.16
30598;BME280;17365;48.878;8.334;2023-03-20T04:36:10;100487.13;;;10.16;98.23
30598;BME280;17365;48.878;8.334;2023-03-20T04:38:36;100488.69;;;9.98;99.18
30598;BME280;17365;48.878;8.334;2023-03-20T04:41:01;100493.13;;;10.11;98.53
30598;BME280;17365;48.878;8.334;2023-03-20T04:43:27;100495.88;;;10.23;98.13
30598;BME280;17365;48.878;8.334;2023-03-20T04:45:52;100495.03;;;10.26;98.08
30598;BME280;17365;48.878;8.334;2023-03-20T04:48:18;100486.31;;;10.20;98.09
30598;BME280;17365;48.878;8.334;2023-03-20T04:50:43;100487.09;;;10.12;98.06
30598;BME280;17365;48.878;8.334;2023-03-20T04:53:12;100478.28;;;9.95;99.66
30598;BME280;17365;48.878;8.334;2023-03-20T04:55:37;100485.31;;;10.08;99.08
30598;BME280;17365;48.878;8.334;2023-03-20T04:58:02;100476.44;;;9.84;100.00
30598;BME280;17365;48.878;8.334;2023-03-20T05:00:27;100475.63;;;9.88;100.00
30598;BME280;17365;48.878;8.334;2023-03-20T05:02:52;100473.03;;;9.88;100.00
30598;BME280;17365;48.878;8.334;2023-03-20T05:05:18;100473.91;;;9.90;100.00
30598;BME280;17365;48.878;8.334;2023-03-20T05:07:43;100474.75;;;9.88;100.00
30598;BME280;17365;48.878;8.334;2023-03-20T05:10:08;100476.66;;;10.07;99.98
30598;BME280;17365;48.878;8.334;2023-03-20T05:12:34;100477.28;;;9.85;99.99
30598;BME280;17365;48.878;8.334;2023-03-20T05:14:59;100485.28;;;10.03;99.13
30598;BME280;17365;48.878;8.334;2023-03-20T05:17:24;100487.06;;;10.09;98.35
30598;BME280;17365;48.878;8.334;2023-03-20T05:19:50;100490.53;;;10.11;98.50
30598;BME280;17365;48.878;8.334;2023-03-20T05:22:15;100488.72;;;10.01;98.39
30598;BME280;17365;48.878;8.334;2023-03-20T05:24:41;100481.06;;;10.14;98.13
30598;BME280;17365;48.878;8.334;2023-03-20T05:27:06;100476.72;;;10.09;98.38
30598;BME280;17365;48.878;8.334;2023-03-20T05:29:31;100479.97;;;9.92;99.30
30598;BME280;17365;48.878;8.334;2023-03-20T05:31:56;100480.94;;;9.99;98.90
30598;BME280;17365;48.878;8.334;2023-03-20T05:34:21;100479.22;;;10.04;99.42
30598;BME280;17365;48.878;8.334;2023-03-20T05:36:47;100484.28;;;9.89;99.49
30598;BME280;17365;48.878;8.334;2023-03-20T05:39:12;100481.56;;;9.78;100.00
30598;BME280;17365;48.878;8.334;2023-03-20T05:41:37;100483.16;;;9.67;100.00
30598;BME280;17365;48.878;8.334;2023-03-20T05:44:03;100491.09;;;9.84;100.00
30598;BME280;17365;48.878;8.334;2023-03-20T05:46:28;100496.84;;;9.55;100.00
30598;BME280;17365;48.878;8.334;2023-03-20T05:48:53;100500.59;;;9.83;100.00
30598;BME280;17365;48.878;8.334;2023-03-20T05:51:18;100503.19;;;9.83;100.00
30598;BME280;17365;48.878;8.334;2023-03-20T05:53:44;100511.06;;;9.92;99.72
30598;BME280;17365;48.878;8.334;2023-03-20T05:56:09;100505.09;;;9.97;99.69
30598;BME280;17365;48.878;8.334;2023-03-20T05:58:34;100503.31;;;9.96;98.91
30598;BME280;17365;48.878;8.334;2023-03-20T06:01:00;100490.34;;;9.91;99.78
30598;BME280;17365;48.878;8.334;2023-03-20T06:03:25;100493.91;;;10.02;99.30
30598;BME280;17365;48.878;8.334;2023-03-20T06:05:50;100486.84;;;9.87;99.71
30598;BME280;17365;48.878;8.334;2023-03-20T06:08:16;100486.03;;;9.91;99.83
30598;BME280;17365;48.878;8.334;2023-03-20T06:10:41;100484.41;;;10.04;99.12
30598;BME280;17365;48.878;8.334;2023-03-20T06:13:06;100489.78;;;10.19;97.66
30598;BME280;17365;48.878;8.334;2023-03-20T06:15:31;100487.91;;;10.08;98.14
30598;BME280;17365;48.878;8.334;2023-03-20T06:17:56;100495.25;;;10.52;96.43
30598;BME280;17365;48.878;8.334;2023-03-20T06:20:22;100498.75;;;10.54;95.94
30598;BME280;17365;48.878;8.334;2023-03-20T06:22:48;100506.56;;;10.60;94.84
30598;BME280;17365;48.878;8.334;2023-03-20T06:25:13;100498.72;;;10.52;93.97
30598;BME280;17365;48.878;8.334;2023-03-20T06:27:38;100498.66;;;10.46;94.75
30598;BME280;17365;48.878;8.334;2023-03-20T06:30:04;100502.03;;;10.36;95.25
30598;BME280;17365;48.878;8.334;2023-03-20T06:32:30;100507.44;;;10.60;94.31
30598;BME280;17365;48.878;8.334;2023-03-20T06:34:55;100521.41;;;10.76;93.23
30598;BME280;17365;48.878;8.334;2023-03-20T06:37:20;100530.69;;;10.49;93.37
30598;BME280;17365;48.878;8.334;2023-03-20T06:39:46;100535.09;;;10.58;94.18
30598;BME280;17365;48.878;8.334;2023-03-20T06:42:11;100527.97;;;10.34;94.07
30598;BME280;17365;48.878;8.334;2023-03-20T06:44:37;100541.00;;;10.42;94.11
30598;BME280;17365;48.878;8.334;2023-03-20T06:47:02;100541.81;;;10.38;94.18
30598;BME280;17365;48.878;8.334;2023-03-20T06:49:27;100539.25;;;10.41;94.18
30598;BME280;17365;48.878;8.334;2023-03-20T06:51:52;100547.88;;;10.38;94.39
30598;BME280;17365;48.878;8.334;2023-03-20T06:54:18;100547.97;;;10.50;93.66
30598;BME280;17365;48.878;8.334;2023-03-20T06:56:43;100549.88;;;10.67;93.11
30598;BME280;17365;48.878;8.334;2023-03-20T06:59:08;100560.84;;;10.41;93.63
30598;BME280;17365;48.878;8.334;2023-03-20T07:01:33;100556.41;;;10.28;94.17
30598;BME280;17365;48.878;8.334;2023-03-20T07:03:58;100561.88;;;10.56;93.53
30598;BME280;17365;48.878;8.334;2023-03-20T07:06:25;100567.94;;;10.55;93.15
30598;BME280;17365;48.878;8.334;2023-03-20T07:08:50;100569.84;;;10.77;92.45
30598;BME280;17365;48.878;8.334;2023-03-20T07:11:16;100568.06;;;10.73;92.20
30598;BME280;17365;48.878;8.334;2023-03-20T07:13:42;100563.91;;;10.93;91.87
30598;BME280;17365;48.878;8.334;2023-03-20T07:16:08;100567.31;;;10.86;91.77
30598;BME280;17365;48.878;8.334;2023-03-20T07:18:33;100571.41;;;10.58;92.43
30598;BME280;17365;48.878;8.334;2023-03-20T07:21:00;100576.81;;;10.84;91.38
30598;BME280;17365;48.878;8.334;2023-03-20T07:23:26;100566.38;;;10.76;92.12
30598;BME280;17365;48.878;8.334;2023-03-20T07:25:51;100565.53;;;10.81;91.96
30598;BME280;17365;48.878;8.334;2023-03-20T07:28:17;100568.25;;;10.94;90.80
30598;BME280;17365;48.878;8.334;2023-03-20T07:30:42;100566.66;;;11.15;89.44
30598;BME280;17365;48.878;8.334;2023-03-20T07:33:07;100564.78;;;10.94;89.45
30598;BME280;17365;48.878;8.334;2023-03-20T07:35:32;100567.22;;;10.75;90.43
30598;BME280;17365;48.878;8.334;2023-03-20T07:37:58;100555.19;;;10.87;90.24
30598;BME280;17365;48.878;8.334;2023-03-20T07:40:23;100559.34;;;10.63;91.81
30598;BME280;17365;48.878;8.334;2023-03-20T07:42:48;100553.06;;;10.41;93.80
30598;BME280;17365;48.878;8.334;2023-03-20T07:45:14;100546.25;;;10.51;93.48
30598;BME280;17365;48.878;8.334;2023-03-20T07:47:41;100560.28;;;10.73;92.12
30598;BME280;17365;48.878;8.334;2023-03-20T07:50:06;100549.13;;;10.86;91.21
30598;BME280;17365;48.878;8.334;2023-03-20T07:52:31;100554.47;;;11.00;90.18
30598;BME280;17365;48.878;8.334;2023-03-20T07:54:57;100554.63;;;11.32;90.09
30598;BME280;17365;48.878;8.334;2023-03-20T07:57:22;100560.84;;;11.55;88.48
30598;BME280;17365;48.878;8.334;2023-03-20T07:59:47;100556.50;;;11.54;86.60
30598;BME280;17365;48.878;8.334;2023-03-20T08:02:15;100555.47;;;11.22;87.59
30598;BME280;17365;48.878;8.334;2023-03-20T08:04:41;100553.63;;;11.07;89.38
30598;BME280;17365;48.878;8.334;2023-03-20T08:07:06;100552.72;;;11.02;88.98
30598;BME280;17365;48.878;8.334;2023-03-20T08:09:31;100551.88;;;11.06;87.58
30598;BME280;17365;48.878;8.334;2023-03-20T08:11:57;100555.47;;;11.22;86.83
30598;BME280;17365;48.878;8.334;2023-03-20T08:14:22;100555.53;;;11.35;85.29
30598;BME280;17365;48.878;8.334;2023-03-20T08:16:47;100552.72;;;10.99;86.67
30598;BME280;17365;48.878;8.334;2023-03-20T08:19:12;100565.72;;;11.03;86.98
30598;BME280;17365;48.878;8.334;2023-03-20T08:21:37;100570.06;;;11.06;86.08
30598;BME280;17365;48.878;8.334;2023-03-20T08:24:04;100569.16;;;10.99;87.14
30598;BME280;17365;48.878;8.334;2023-03-20T08:26:30;100569.31;;;11.24;87.30
30598;BME280;17365;48.878;8.334;2023-03-20T08:28:55;100578.19;;;11.59;85.79
30598;BME280;17365;48.878;8.334;2023-03-20T08:31:21;100580.84;;;11.69;83.32
30598;BME280;17365;48.878;8.334;2023-03-20T08:33:47;100585.13;;;11.62;83.63
30598;BME280;17365;48.878;8.334;2023-03-20T08:36:13;100583.38;;;11.56;84.89
30598;BME280;17365;48.878;8.334;2023-03-20T08:38:43;100586.91;;;11.77;83.43
30598;BME280;17365;48.878;8.334;2023-03-20T08:41:09;100592.06;;;11.61;82.14
30598;BME280;17365;48.878;8.334;2023-03-20T08:43:34;100583.53;;;11.81;82.14
30598;BME280;17365;48.878;8.334;2023-03-20T08:46:00;100591.94;;;11.40;83.37
30598;BME280;17365;48.878;8.334;2023-03-20T08:48:25;100597.84;;;11.18;83.91
30598;BME280;17365;48.878;8.334;2023-03-20T08:50:50;100592.84;;;11.47;82.44
30598;BME280;17365;48.878;8.334;2023-03-20T08:53:16;100595.56;;;11.71;81.69
30598;BME280;17365;48.878;8.334;2023-03-20T08:55:46;100592.84;;;11.45;80.96
30598;BME280;17365;48.878;8.334;2023-03-20T08:58:11;100605.78;;;11.39;81.69
30598;BME280;17365;48.878;8.334;2023-03-20T09:00:37;100605.91;;;11.57;81.55
30598;BME280;17365;48.878;8.334;2023-03-20T09:03:02;100598.91;;;11.52;82.08
30598;BME280;17365;48.878;8.334;2023-03-20T09:05:27;100593.97;;;11.94;79.87
30598;BME280;17365;48.878;8.334;2023-03-20T09:07:52;100600.91;;;11.95;78.99
30598;BME280;17365;48.878;8.334;2023-03-20T09:10:17;100600.16;;;12.30;77.07
30598;BME280;17365;48.878;8.334;2023-03-20T09:12:43;100601.84;;;12.19;77.46
30598;BME280;17365;48.878;8.334;2023-03-20T09:15:08;100601.94;;;12.46;76.50
30598;BME280;17365;48.878;8.334;2023-03-20T09:17:33;100596.69;;;12.33;75.98
30598;BME280;17365;48.878;8.334;2023-03-20T09:19:58;100596.75;;;12.68;75.66
30598;BME280;17365;48.878;8.334;2023-03-20T09:22:24;100612.41;;;13.04;74.41
30598;BME280;17365;48.878;8.334;2023-03-20T09:24:49;100606.31;;;12.90;73.36
30598;BME280;17365;48.878;8.334;2023-03-20T09:27:15;100607.19;;;13.04;71.45
30598;BME280;17365;48.878;8.334;2023-03-20T09:29:40;100613.25;;;12.85;70.16
30598;BME280;17365;48.878;8.334;2023-03-20T09:32:06;100607.19;;;12.92;71.21
30598;BME280;17365;48.878;8.334;2023-03-20T09:34:32;100623.63;;;12.53;70.99
30598;BME280;17365;48.878;8.334;2023-03-20T09:36:57;100627.97;;;12.66;71.42
30598;BME280;17365;48.878;8.334;2023-03-20T09:39:22;100629.69;;;12.57;70.98
30598;BME280;17365;48.878;8.334;2023-03-20T09:41:47;100620.97;;;12.26;71.73
30598;BME280;17365;48.878;8.334;2023-03-20T09:49:39;100634.00;;;12.36;71.74
30598;BME280;17365;48.878;8.334;2023-03-20T09:52:16;100635.63;;;12.11;72.31
30598;BME280;17365;48.878;8.334;2023-03-20T09:54:44;100640.09;;;12.50;70.91
30598;BME280;17365;48.878;8.334;2023-03-20T09:57:44;100636.66;;;12.58;69.08
30598;BME280;17365;48.878;8.334;2023-03-20T10:00:04;100633.09;;;12.28;69.41
30598;BME280;17365;48.878;8.334;2023-03-20T10:02:40;100629.59;;;12.21;69.40
30598;BME280;17365;48.878;8.334;2023-03-20T10:05:30;100633.16;;;12.46;68.33
30598;BME280;17365;48.878;8.334;2023-03-20T10:07:58;100625.34;;;12.37;67.32
30598;BME280;17365;48.878;8.334;2023-03-20T10:10:36;100619.16;;;12.08;68.21
30598;BME280;17365;48.878;8.334;2023-03-20T10:18:01;100623.38;;;11.86;69.63
30598;BME280;17365;48.878;8.334;2023-03-20T10:20:33;100615.72;;;12.21;69.01
30598;BME280;17365;48.878;8.334;2023-03-20T10:25:41;100606.09;;;11.95;69.33
30598;BME280;17365;48.878;8.334;2023-03-20T10:28:16;100601.03;;;12.24;68.84
30598;BME280;17365;48.878;8.334;2023-03-20T10:40:51;100608.94;;;12.92;66.74
30598;BME280;17365;48.878;8.334;2023-03-20T10:43:28;100616.69;;;12.46;67.25
30598;BME280;17365;48.878;8.334;2023-03-20T10:46:09;100610.59;;;12.36;68.54
30598;BME280;17365;48.878;8.334;2023-03-20T10:48:44;100606.16;;;12.08;69.64
30598;BME280;17365;48.878;8.334;2023-03-20T10:51:21;100604.56;;;12.60;68.27
30598;BME280;17365;48.878;8.334;2023-03-20T10:53:57;100614.97;;;12.57;66.37
30598;BME280;17365;48.878;8.334;2023-03-20T10:59:27;100607.19;;;13.03;65.80
30598;BME280;17365;48.878;8.334;2023-03-20T11:01:53;100601.06;;;12.67;66.29
30598;BME280;17365;48.878;8.334;2023-03-20T11:04:18;100598.50;;;12.92;64.70
30598;BME280;17365;48.878;8.334;2023-03-20T11:06:47;100595.91;;;13.39;63.68
30598;BME280;17365;48.878;8.334;2023-03-20T11:09:19;100594.09;;;13.58;63.16
30598;BME280;17365;48.878;8.334;2023-03-20T11:11:45;100583.53;;;13.91;62.37
30598;BME280;17365;48.878;8.334;2023-03-20T11:14:20;100576.38;;;14.33;61.36
30598;BME280;17365;48.878;8.334;2023-03-20T11:16:50;100580.91;;;14.05;60.95
30598;BME280;17365;48.878;8.334;2023-03-20T11:19:17;100581.00;;;13.70;63.19
30598;BME280;17365;48.878;8.334;2023-03-20T11:21:49;100574.84;;;13.95;62.83
30598;BME280;17365;48.878;8.334;2023-03-20T11:24:23;100574.91;;;13.80;62.13
30598;BME280;17365;48.878;8.334;2023-03-20T11:26:49;100581.97;;;13.42;61.78
30598;BME280;17365;48.878;8.334;2023-03-20T11:29:23;100582.88;;;13.31;63.51
30598;BME280;17365;48.878;8.334;2023-03-20T11:31:51;100573.31;;;13.39;63.07
30598;BME280;17365;48.878;8.334;2023-03-20T11:36:46;100569.34;;;14.50;59.03
30598;BME280;17365;48.878;8.334;2023-03-20T11:39:24;100565.41;;;13.56;59.64
30598;BME280;17365;48.878;8.334;2023-03-20T11:41:51;100555.59;;;14.15;59.14
30598;BME280;17365;48.878;8.334;2023-03-20T11:47:25;100547.91;;;13.89;58.13
30598;BME280;17365;48.878;8.334;2023-03-20T11:52:12;100551.09;;;14.46;56.97
30598;BME280;17365;48.878;8.334;2023-03-20T11:54:38;100542.53;;;14.21;58.15
30598;BME280;17365;48.878;8.334;2023-03-20T11:57:23;100556.34;;;14.40;58.40
30598;BME280;17365;48.878;8.334;2023-03-20T11:59:50;100557.75;;;14.83;57.20
30598;BME280;17365;48.878;8.334;2023-03-20T12:02:17;100562.97;;;14.88;56.94
30598;BME280;17365;48.878;8.334;2023-03-20T12:04:43;100550.59;;;15.04;55.68
30598;BME280;17365;48.878;8.334;2023-03-20T12:07:24;100555.81;;;15.08;56.26
30598;BME280;17365;48.878;8.334;2023-03-20T12:14:50;100545.75;;;14.60;56.63
30598;BME280;17365;48.878;8.334;2023-03-20T12:19:56;100545.78;;;14.58;57.03
30598;BME280;17365;48.878;8.334;2023-03-20T12:22:22;100538.06;;;14.40;57.23
30598;BME280;17365;48.878;8.334;2023-03-20T12:25:03;100538.16;;;14.23;57.71
30598;BME280;17365;48.878;8.334;2023-03-20T12:27:32;100533.84;;;14.20;59.62
30598;BME280;17365;48.878;8.334;2023-03-20T12:30:02;100532.84;;;14.35;58.02
30598;BME280;17365;48.878;8.334;2023-03-20T12:35:27;100524.22;;;14.24;58.84
30598;BME280;17365;48.878;8.334;2023-03-20T12:37:53;100527.53;;;14.56;57.55
30598;BME280;17365;48.878;8.334;2023-03-20T12:40:18;100516.84;;;14.81;56.59
30598;BME280;17365;48.878;8.334;2023-03-20T12:42:59;100516.75;;;14.93;56.68
30598;BME280;17365;48.878;8.334;2023-03-20T12:45:39;100515.97;;;14.85;56.15
30598;BME280;17365;48.878;8.334;2023-03-20T12:48:09;100511.59;;;14.87;55.32
30598;BME280;17365;48.878;8.334;2023-03-20T12:50:43;100505.50;;;14.83;54.38
30598;BME280;17365;48.878;8.334;2023-03-20T13:01:06;100490.16;;;15.37;54.05
30598;BME280;17365;48.878;8.334;2023-03-20T13:09:05;100482.50;;;15.21;53.81
30598;BME280;17365;48.878;8.334;2023-03-20T13:14:09;100472.88;;;14.32;55.90
30598;BME280;17365;48.878;8.334;2023-03-20T13:16:41;100470.31;;;14.27;56.38
30598;BME280;17365;48.878;8.334;2023-03-20T13:21:55;100468.03;;;14.89;54.38
30598;BME280;17365;48.878;8.334;2023-03-20T13:24:26;100480.09;;;15.01;53.88
30598;BME280;17365;48.878;8.334;2023-03-20T13:27:03;100468.56;;;15.20;53.28
30598;BME280;17365;48.878;8.334;2023-03-20T13:32:05;100476.44;;;15.19;52.91
30598;BME280;17365;48.878;8.334;2023-03-20T13:39:39;100463.25;;;15.29;51.97
30598;BME280;17365;48.878;8.334;2023-03-20T13:42:08;100453.94;;;15.04;50.97
30598;BME280;17365;48.878;8.334;2023-03-20T13:44:35;100461.91;;;14.92;51.48
30598;BME280;17365;48.878;8.334;2023-03-20T13:47:02;100464.47;;;14.95;52.02
30598;BME280;17365;48.878;8.334;2023-03-20T14:05:02;100452.41;;;14.86;51.90
30598;BME280;17365;48.878;8.334;2023-03-20T14:07:32;100445.22;;;15.06;51.47
30598;BME280;17365;48.878;8.334;2023-03-20T14:10:29;100442.47;;;15.19;51.56
30598;BME280;17365;48.878;8.334;2023-03-20T14:12:46;100440.91;;;15.02;51.49
30598;BME280;17365;48.878;8.334;2023-03-20T14:15:12;100430.53;;;14.96;51.45
30598;BME280;17365;48.878;8.334;2023-03-20T14:17:37;100428.84;;;14.89;50.93
30598;BME280;17365;48.878;8.334;2023-03-20T14:20:11;100429.03;;;14.72;51.83
30598;BME280;17365;48.878;8.334;2023-03-20T14:22:38;100431.47;;;14.89;51.97
30598;BME280;17365;48.878;8.334;2023-03-20T14:25:05;100427.19;;;14.82;52.82
30598;BME280;17365;48.878;8.334;2023-03-20T14:27:35;100429.22;;;14.49;52.61
30598;BME280;17365;48.878;8.334;2023-03-20T14:33:00;100433.19;;;14.90;51.39
30598;BME280;17365;48.878;8.334;2023-03-20T14:35:29;100429.25;;;14.46;52.65
30598;BME280;17365;48.878;8.334;2023-03-20T14:38:20;100428.38;;;14.50;52.45
30598;BME280;17365;48.878;8.334;2023-03-20T14:48:55;100433.59;;;14.50;52.79
30598;BME280;17365;48.878;8.334;2023-03-20T14:56:42;100426.41;;;14.71;52.91
30598;BME280;17365;48.878;8.334;2023-03-20T14:59:08;100428.13;;;14.76;53.02
30598;BME280;17365;48.878;8.334;2023-03-20T15:04:14;100420.09;;;14.93;52.53